createdAt,value
2019-03-25T00:00:20.946Z,1025.02
2019-03-25T00:01:20.686Z,1025.03
2019-03-25T00:02:20.715Z,1025.02
2019-03-25T00:03:20.799Z,1024.99
2019-03-25T00:04:20.785Z,1024.98
2019-03-25T00:05:20.806Z,1024.98
2019-03-25T00:06:20.725Z,1024.99
2019-03-25T00:07:20.753Z,1024.98
2019-03-25T00:08:20.917Z,1024.94
2019-03-25T00:09:20.759Z,1024.96
2019-03-25T00:10:20.782Z,1024.92
2019-03-25T00:11:20.897Z,1024.9
2019-03-25T00:12:20.833Z,1024.93
2019-03-25T00:13:20.883Z,1024.88
2019-03-25T00:14:21.035Z,1024.89
2019-03-25T00:15:20.939Z,1024.91
2019-03-25T00:16:20.900Z,1024.92
2019-03-25T00:17:20.897Z,1024.92
2019-03-25T00:18:20.888Z,1024.88
2019-03-25T00:19:20.929Z,1024.88
2019-03-25T00:20:20.706Z,1024.92
2019-03-25T00:21:20.958Z,1024.96
2019-03-25T00:22:20.838Z,1024.89
2019-03-25T00:23:20.853Z,1024.92
2019-03-25T00:24:20.862Z,1024.88
2019-03-25T00:25:20.808Z,1024.87
2019-03-25T00:26:20.843Z,1024.87
2019-03-25T00:27:20.775Z,1024.92
2019-03-25T00:28:20.861Z,1024.91
2019-03-25T00:29:20.822Z,1024.95
2019-03-25T00:30:20.852Z,1024.93
2019-03-25T00:31:20.893Z,1024.92
2019-03-25T00:32:20.891Z,1024.94
2019-03-25T00:33:20.885Z,1024.92
2019-03-25T00:34:20.930Z,1024.89
2019-03-25T00:35:21.203Z,1024.84
2019-03-25T00:36:21.311Z,1024.82
2019-03-25T00:37:21.318Z,1024.79
2019-03-25T00:38:20.814Z,1024.8
2019-03-25T00:39:20.691Z,1024.76
2019-03-25T00:40:20.812Z,1024.75
2019-03-25T00:41:20.708Z,1024.7
2019-03-25T00:42:20.704Z,1024.76
2019-03-25T00:43:20.860Z,1024.78
2019-03-25T00:44:20.739Z,1024.8
2019-03-25T00:45:20.796Z,1024.81
2019-03-25T00:46:20.791Z,1024.81
2019-03-25T00:47:20.773Z,1024.81
2019-03-25T00:48:20.805Z,1024.78
2019-03-25T00:49:20.959Z,1024.77
2019-03-25T00:50:21.061Z,1024.76
2019-03-25T00:51:20.843Z,1024.75
2019-03-25T00:52:20.902Z,1024.78
2019-03-25T00:53:20.874Z,1024.79
2019-03-25T00:54:20.903Z,1024.81
2019-03-25T00:55:21.027Z,1024.81
2019-03-25T00:56:20.744Z,1024.78
2019-03-25T00:57:20.763Z,1024.76
2019-03-25T00:58:20.832Z,1024.78
2019-03-25T00:59:20.834Z,1024.75
2019-03-25T01:00:20.837Z,1024.75
2019-03-25T01:01:20.934Z,1024.75
2019-03-25T01:02:20.782Z,1024.75
2019-03-25T01:03:20.904Z,1024.78
2019-03-25T01:04:20.834Z,1024.75
2019-03-25T01:05:20.819Z,1024.76
2019-03-25T01:06:20.933Z,1024.77
2019-03-25T01:07:20.869Z,1024.78
2019-03-25T01:08:20.879Z,1024.76
2019-03-25T01:09:20.992Z,1024.75
2019-03-25T01:10:20.903Z,1024.73
2019-03-25T01:11:20.984Z,1024.75
2019-03-25T01:12:20.915Z,1024.74
2019-03-25T01:13:20.974Z,1024.74
2019-03-25T01:14:20.647Z,1024.73
2019-03-25T01:15:20.843Z,1024.71
2019-03-25T01:16:20.875Z,1024.74
2019-03-25T01:17:20.693Z,1024.72
2019-03-25T01:18:20.682Z,1024.77
2019-03-25T01:19:20.738Z,1024.75
2019-03-25T01:20:21.208Z,1024.77
2019-03-25T01:21:20.748Z,1024.75
2019-03-25T01:22:20.830Z,1024.78
2019-03-25T01:23:20.784Z,1024.76
2019-03-25T01:24:20.939Z,1024.74
2019-03-25T01:25:20.968Z,1024.74
2019-03-25T01:26:20.902Z,1024.72
2019-03-25T01:27:20.823Z,1024.76
2019-03-25T01:28:21.046Z,1024.76
2019-03-25T01:29:20.842Z,1024.75
2019-03-25T01:30:20.853Z,1024.76
2019-03-25T01:31:20.999Z,1024.76
2019-03-25T01:32:20.978Z,1024.77
2019-03-25T01:33:20.672Z,1024.76
2019-03-25T01:34:20.726Z,1024.75
2019-03-25T01:35:20.715Z,1024.78
2019-03-25T01:36:20.711Z,1024.77
2019-03-25T01:37:20.856Z,1024.79
2019-03-25T01:38:20.732Z,1024.85
2019-03-25T01:39:20.829Z,1024.81
2019-03-25T01:40:20.788Z,1024.83
2019-03-25T01:41:21.026Z,1024.83
2019-03-25T01:42:20.833Z,1024.82
2019-03-25T01:43:20.918Z,1024.81
2019-03-25T01:44:20.869Z,1024.81
2019-03-25T01:45:20.915Z,1024.81
2019-03-25T01:46:20.866Z,1024.77
2019-03-25T01:47:21.107Z,1024.77
2019-03-25T01:48:20.941Z,1024.79
2019-03-25T01:49:20.906Z,1024.76
2019-03-25T01:50:20.875Z,1024.75
2019-03-25T01:51:20.908Z,1024.75
2019-03-25T01:52:20.643Z,1024.78
2019-03-25T01:53:20.638Z,1024.7
2019-03-25T01:54:20.719Z,1024.67
2019-03-25T01:55:20.696Z,1024.66
2019-03-25T01:56:20.727Z,1024.66
2019-03-25T01:57:20.774Z,1024.68
2019-03-25T01:58:20.741Z,1024.71
2019-03-25T01:59:20.735Z,1024.66
2019-03-25T02:00:20.738Z,1024.65
2019-03-25T02:01:20.907Z,1024.64
2019-03-25T02:02:21.102Z,1024.62
2019-03-25T02:03:21.224Z,1024.6
2019-03-25T02:04:20.820Z,1024.61
2019-03-25T02:05:20.797Z,1024.62
2019-03-25T02:06:20.958Z,1024.59
2019-03-25T02:07:20.863Z,1024.61
2019-03-25T02:08:20.859Z,1024.59
2019-03-25T02:09:20.983Z,1024.57
2019-03-25T02:10:20.915Z,1024.58
2019-03-25T02:11:22.618Z,1024.53
2019-03-25T02:12:20.675Z,1024.56
2019-03-25T02:13:20.773Z,1024.53
2019-03-25T02:14:20.828Z,1024.59
2019-03-25T02:15:20.705Z,1024.56
2019-03-25T02:16:20.754Z,1024.56
2019-03-25T02:17:20.761Z,1024.53
2019-03-25T02:18:20.744Z,1024.53
2019-03-25T02:19:20.802Z,1024.53
2019-03-25T02:20:27.106Z,1024.52
2019-03-25T02:21:20.895Z,1024.51
2019-03-25T02:22:20.849Z,1024.53
2019-03-25T02:23:20.811Z,1024.53
2019-03-25T02:24:21.177Z,1024.56
2019-03-25T02:25:26.245Z,1024.57
2019-03-25T02:26:20.882Z,1024.54
2019-03-25T02:27:21.022Z,1024.54
2019-03-25T02:28:20.916Z,1024.52
2019-03-25T02:29:20.619Z,1024.5
2019-03-25T02:30:20.583Z,1024.52
2019-03-25T02:31:20.693Z,1024.48
2019-03-25T02:32:20.698Z,1024.49
2019-03-25T02:33:20.757Z,1024.48
2019-03-25T02:34:20.725Z,1024.48
2019-03-25T02:35:20.816Z,1024.45
2019-03-25T02:36:20.742Z,1024.48
2019-03-25T02:37:20.774Z,1024.47
2019-03-25T02:38:20.714Z,1024.46
2019-03-25T02:39:20.927Z,1024.48
2019-03-25T02:40:20.860Z,1024.47
2019-03-25T02:41:20.795Z,1024.48
2019-03-25T02:42:20.795Z,1024.46
2019-03-25T02:43:20.803Z,1024.5
2019-03-25T02:44:20.902Z,1024.51
2019-03-25T02:45:20.835Z,1024.51
2019-03-25T02:46:21.220Z,1024.48
2019-03-25T02:47:20.640Z,1024.48
2019-03-25T02:48:20.662Z,1024.47
2019-03-25T02:49:20.701Z,1024.47
2019-03-25T02:50:20.716Z,1024.47
2019-03-25T02:51:20.707Z,1024.44
2019-03-25T02:52:20.751Z,1024.42
2019-03-25T02:53:20.729Z,1024.42
2019-03-25T02:54:20.756Z,1024.4
2019-03-25T02:55:20.748Z,1024.44
2019-03-25T02:56:20.784Z,1024.43
2019-03-25T02:57:20.764Z,1024.43
2019-03-25T02:58:20.994Z,1024.42
2019-03-25T02:59:20.922Z,1024.44
2019-03-25T03:00:20.818Z,1024.47
2019-03-25T03:01:20.842Z,1024.43
2019-03-25T03:02:20.930Z,1024.43
2019-03-25T03:03:20.953Z,1024.43
2019-03-25T03:04:20.906Z,1024.43
2019-03-25T03:05:20.878Z,1024.43
2019-03-25T03:06:20.649Z,1024.42
2019-03-25T03:07:20.688Z,1024.39
2019-03-25T03:08:20.767Z,1024.4
2019-03-25T03:09:20.659Z,1024.45
2019-03-25T03:10:20.734Z,1024.46
2019-03-25T03:11:20.671Z,1024.43
2019-03-25T03:12:20.809Z,1024.44
2019-03-25T03:13:20.817Z,1024.41
2019-03-25T03:14:20.855Z,1024.41
2019-03-25T03:15:20.883Z,1024.45
2019-03-25T03:16:20.765Z,1024.42
2019-03-25T03:17:20.689Z,1024.4
2019-03-25T03:18:20.904Z,1024.4
2019-03-25T03:19:20.820Z,1024.38
2019-03-25T03:20:20.830Z,1024.37
2019-03-25T03:21:20.795Z,1024.37
2019-03-25T03:22:20.819Z,1024.36
2019-03-25T03:23:20.832Z,1024.35
2019-03-25T03:24:20.729Z,1024.33
2019-03-25T03:25:20.836Z,1024.35
2019-03-25T03:26:20.682Z,1024.34
2019-03-25T03:27:20.779Z,1024.35
2019-03-25T03:28:20.717Z,1024.32
2019-03-25T03:29:20.770Z,1024.34
2019-03-25T03:30:20.791Z,1024.3
2019-03-25T03:31:20.925Z,1024.32
2019-03-25T03:32:20.808Z,1024.28
2019-03-25T03:33:20.902Z,1024.34
2019-03-25T03:34:20.873Z,1024.3
2019-03-25T03:35:20.870Z,1024.32
2019-03-25T03:36:20.873Z,1024.29
2019-03-25T03:37:20.857Z,1024.33
2019-03-25T03:38:20.844Z,1024.31
2019-03-25T03:39:20.859Z,1024.31
2019-03-25T03:40:20.973Z,1024.29
2019-03-25T03:41:20.840Z,1024.3
2019-03-25T03:42:20.994Z,1024.29
2019-03-25T03:43:20.628Z,1024.28
2019-03-25T03:44:20.878Z,1024.32
2019-03-25T03:45:20.655Z,1024.29
2019-03-25T03:46:20.670Z,1024.28
2019-03-25T03:47:20.650Z,1024.3
2019-03-25T03:48:20.671Z,1024.25
2019-03-25T03:49:20.750Z,1024.31
2019-03-25T03:50:21.083Z,1024.26
2019-03-25T03:51:20.891Z,1024.29
2019-03-25T03:52:20.781Z,1024.29
2019-03-25T03:53:20.726Z,1024.28
2019-03-25T03:54:20.723Z,1024.26
2019-03-25T03:55:20.929Z,1024.24
2019-03-25T03:56:20.754Z,1024.28
2019-03-25T03:57:20.793Z,1024.27
2019-03-25T03:58:20.901Z,1024.28
2019-03-25T03:59:20.919Z,1024.25
2019-03-25T04:00:20.820Z,1024.26
2019-03-25T04:01:20.852Z,1024.25
2019-03-25T04:02:20.724Z,1024.21
2019-03-25T04:03:20.813Z,1024.21
2019-03-25T04:04:20.690Z,1024.21
2019-03-25T04:05:20.784Z,1024.16
2019-03-25T04:06:20.723Z,1024.14
2019-03-25T04:07:20.788Z,1024.12
2019-03-25T04:08:20.807Z,1024.12
2019-03-25T04:09:20.734Z,1024.13
2019-03-25T04:10:20.757Z,1024.13
2019-03-25T04:11:20.819Z,1024.12
2019-03-25T04:12:20.990Z,1024.09
2019-03-25T04:13:21.148Z,1024.08
2019-03-25T04:14:20.894Z,1024.11
2019-03-25T04:15:20.812Z,1024.13
2019-03-25T04:16:20.880Z,1024.13
2019-03-25T04:17:20.831Z,1024.15
2019-03-25T04:18:20.917Z,1024.1
2019-03-25T04:19:20.880Z,1024.11
2019-03-25T04:20:20.569Z,1024.08
2019-03-25T04:21:20.642Z,1024.09
2019-03-25T04:22:20.650Z,1024.11
2019-03-25T04:23:20.715Z,1024.07
2019-03-25T04:24:20.648Z,1024.08
2019-03-25T04:25:20.863Z,1024.07
2019-03-25T04:26:29.741Z,1024.1
2019-03-25T04:27:20.704Z,1024.11
2019-03-25T04:28:20.692Z,1024.13
2019-03-25T04:29:20.732Z,1024.11
2019-03-25T04:30:20.724Z,1024.13
2019-03-25T04:31:20.771Z,1024.09
2019-03-25T04:32:20.732Z,1024.11
2019-03-25T04:33:20.757Z,1024.13
2019-03-25T04:34:20.854Z,1024.16
2019-03-25T04:35:20.756Z,1024.16
2019-03-25T04:36:20.905Z,1024.19
2019-03-25T04:37:20.945Z,1024.18
2019-03-25T04:38:20.827Z,1024.2
2019-03-25T04:39:20.999Z,1024.19
2019-03-25T04:40:20.633Z,1024.22
2019-03-25T04:41:20.745Z,1024.2
2019-03-25T04:42:20.633Z,1024.19
2019-03-25T04:43:20.774Z,1024.2
2019-03-25T04:44:20.689Z,1024.22
2019-03-25T04:45:20.666Z,1024.2
2019-03-25T04:46:20.829Z,1024.19
2019-03-25T04:47:20.717Z,1024.16
2019-03-25T04:48:20.719Z,1024.16
2019-03-25T04:49:20.795Z,1024.12
2019-03-25T04:50:20.870Z,1024.15
2019-03-25T04:51:20.766Z,1024.15
2019-03-25T04:52:20.799Z,1024.11
2019-03-25T04:53:21.063Z,1024.11
2019-03-25T04:54:20.809Z,1024.12
2019-03-25T04:55:21.536Z,1024.09
2019-03-25T04:56:21.101Z,1024.08
2019-03-25T04:57:20.940Z,1024.07
2019-03-25T04:58:20.605Z,1024.04
2019-03-25T04:59:20.572Z,1024.06
2019-03-25T05:00:20.603Z,1024.03
2019-03-25T05:01:20.632Z,1024.04
2019-03-25T05:02:20.642Z,1024.02
2019-03-25T05:03:20.627Z,1023.99
2019-03-25T05:04:20.656Z,1023.98
2019-03-25T05:05:20.762Z,1023.98
2019-03-25T05:06:20.667Z,1024.03
2019-03-25T05:07:20.918Z,1023.95
2019-03-25T05:08:20.681Z,1023.93
2019-03-25T05:09:20.687Z,1023.93
2019-03-25T05:10:20.722Z,1023.94
2019-03-25T05:11:31.129Z,1023.98
2019-03-25T05:12:20.955Z,1023.95
2019-03-25T05:13:20.818Z,1023.95
2019-03-25T05:14:20.877Z,1023.95
2019-03-25T05:15:20.786Z,1023.94
2019-03-25T05:16:20.834Z,1023.93
2019-03-25T05:17:20.696Z,1023.95
2019-03-25T05:18:20.673Z,1023.92
2019-03-25T05:19:20.645Z,1023.91
2019-03-25T05:20:20.606Z,1023.91
2019-03-25T05:21:20.991Z,1023.9
2019-03-25T05:22:20.774Z,1023.9
2019-03-25T05:23:20.666Z,1023.88
2019-03-25T05:24:20.675Z,1023.87
2019-03-25T05:25:20.721Z,1023.85
2019-03-25T05:26:20.767Z,1023.86
2019-03-25T05:27:21.078Z,1023.9
2019-03-25T05:28:20.878Z,1023.87
2019-03-25T05:29:20.738Z,1023.89
2019-03-25T05:30:23.194Z,1023.91
2019-03-25T05:31:20.805Z,1023.91
2019-03-25T05:32:20.778Z,1023.89
2019-03-25T05:33:20.798Z,1023.89
2019-03-25T05:34:20.842Z,1023.9
2019-03-25T05:35:20.884Z,1023.91
2019-03-25T05:36:20.548Z,1023.9
2019-03-25T05:37:20.583Z,1023.9
2019-03-25T05:38:20.577Z,1023.91
2019-03-25T05:39:20.579Z,1023.89
2019-03-25T05:40:20.647Z,1023.88
2019-03-25T05:41:20.705Z,1023.89
2019-03-25T05:42:20.732Z,1023.87
2019-03-25T05:43:21.449Z,1023.85
2019-03-25T05:44:20.659Z,1023.88
2019-03-25T05:45:20.697Z,1023.93
2019-03-25T05:46:20.693Z,1023.89
2019-03-25T05:47:20.698Z,1023.86
2019-03-25T05:48:20.728Z,1023.97
2019-03-25T05:49:20.837Z,1023.95
2019-03-25T05:50:20.751Z,1023.94
2019-03-25T05:51:20.756Z,1023.94
2019-03-25T05:52:20.765Z,1023.91
2019-03-25T05:53:20.779Z,1023.88
2019-03-25T05:54:20.829Z,1023.86
2019-03-25T05:55:20.590Z,1023.83
2019-03-25T05:56:20.725Z,1023.86
2019-03-25T05:57:20.636Z,1023.89
2019-03-25T05:58:20.663Z,1023.89
2019-03-25T05:59:20.670Z,1023.88
2019-03-25T06:00:20.797Z,1023.82
2019-03-25T06:01:20.681Z,1023.83
2019-03-25T06:02:20.772Z,1023.77
2019-03-25T06:03:20.683Z,1023.81
2019-03-25T06:04:20.820Z,1023.8
2019-03-25T06:05:20.705Z,1023.82
2019-03-25T06:06:20.742Z,1023.82
2019-03-25T06:07:20.793Z,1023.83
2019-03-25T06:08:20.728Z,1023.8
2019-03-25T06:09:20.903Z,1023.77
2019-03-25T06:10:20.791Z,1023.75
2019-03-25T06:11:20.801Z,1023.72
2019-03-25T06:12:20.936Z,1023.73
2019-03-25T06:13:20.575Z,1023.68
2019-03-25T06:14:20.662Z,1023.7
2019-03-25T06:15:20.557Z,1023.65
2019-03-25T06:16:20.604Z,1023.63
2019-03-25T06:17:20.593Z,1023.62
2019-03-25T06:18:20.667Z,1023.55
2019-03-25T06:19:20.672Z,1023.57
2019-03-25T06:20:20.709Z,1023.55
2019-03-25T06:21:20.639Z,1023.53
2019-03-25T06:22:20.900Z,1023.52
2019-03-25T06:23:20.686Z,1023.52
2019-03-25T06:24:20.722Z,1023.52
2019-03-25T06:25:20.750Z,1023.45
2019-03-25T06:26:20.866Z,1023.44
2019-03-25T06:27:20.890Z,1023.44
2019-03-25T06:28:20.768Z,1023.42
2019-03-25T06:29:20.848Z,1023.49
2019-03-25T06:30:20.869Z,1023.5
2019-03-25T06:31:20.617Z,1023.56
2019-03-25T06:32:20.603Z,1023.63
2019-03-25T06:33:20.682Z,1023.7
2019-03-25T06:34:20.641Z,1023.71
2019-03-25T06:35:20.608Z,1023.69
2019-03-25T06:36:20.617Z,1023.72
2019-03-25T06:37:20.726Z,1023.72
2019-03-25T06:38:20.646Z,1023.74
2019-03-25T06:39:20.662Z,1023.74
2019-03-25T06:40:20.754Z,1023.7
2019-03-25T06:41:20.688Z,1023.69
2019-03-25T06:42:20.770Z,1023.68
2019-03-25T06:43:21.182Z,1023.64
2019-03-25T06:44:21.066Z,1023.66
2019-03-25T06:45:21.090Z,1023.67
2019-03-25T06:46:22.517Z,1023.67
2019-03-25T06:47:20.761Z,1023.68
2019-03-25T06:48:20.932Z,1023.66
2019-03-25T06:49:21.063Z,1023.65
2019-03-25T06:50:20.591Z,1023.62
2019-03-25T06:51:20.542Z,1023.61
2019-03-25T06:52:20.590Z,1023.62
2019-03-25T06:53:20.561Z,1023.59
2019-03-25T06:54:20.658Z,1023.62
2019-03-25T06:55:20.651Z,1023.58
2019-03-25T06:56:20.636Z,1023.58
2019-03-25T06:57:26.163Z,1023.57
2019-03-25T06:58:20.750Z,1023.57
2019-03-25T06:59:20.661Z,1023.61
2019-03-25T07:00:20.658Z,1023.58
2019-03-25T07:01:20.693Z,1023.6
2019-03-25T07:02:20.712Z,1023.56
2019-03-25T07:03:20.675Z,1023.56
2019-03-25T07:04:20.742Z,1023.57
2019-03-25T07:05:21.244Z,1023.63
2019-03-25T07:06:20.750Z,1023.64
2019-03-25T07:07:20.793Z,1023.65
2019-03-25T07:08:20.791Z,1023.67
2019-03-25T07:09:20.572Z,1023.63
2019-03-25T07:10:20.683Z,1023.61
2019-03-25T07:11:20.673Z,1023.61
2019-03-25T07:12:20.605Z,1023.61
2019-03-25T07:13:20.682Z,1023.6
2019-03-25T07:14:20.717Z,1023.61
2019-03-25T07:15:20.698Z,1023.6
2019-03-25T07:16:20.699Z,1023.64
2019-03-25T07:17:20.667Z,1023.65
2019-03-25T07:18:20.692Z,1023.63
2019-03-25T07:19:20.837Z,1023.59
2019-03-25T07:20:20.721Z,1023.56
2019-03-25T07:21:20.765Z,1023.55
2019-03-25T07:22:20.784Z,1023.6
2019-03-25T07:23:20.744Z,1023.59
2019-03-25T07:24:20.820Z,1023.63
2019-03-25T07:25:20.805Z,1023.61
2019-03-25T07:26:20.849Z,1023.65
2019-03-25T07:27:20.679Z,1023.66
2019-03-25T07:28:20.586Z,1023.69
2019-03-25T07:29:20.653Z,1023.67
2019-03-25T07:30:20.543Z,1023.68
2019-03-25T07:31:20.699Z,1023.7
2019-03-25T07:32:20.699Z,1023.68
2019-03-25T07:33:20.575Z,1023.62
2019-03-25T07:34:20.679Z,1023.67
2019-03-25T07:35:22.664Z,1023.71
2019-03-25T07:36:20.627Z,1023.82
2019-03-25T07:37:20.671Z,1023.82
2019-03-25T07:38:20.670Z,1023.8
2019-03-25T07:39:20.782Z,1023.83
2019-03-25T07:40:20.722Z,1023.84
2019-03-25T07:41:20.717Z,1023.74
2019-03-25T07:42:20.721Z,1023.72
2019-03-25T07:43:20.827Z,1023.72
2019-03-25T07:44:20.735Z,1023.68
2019-03-25T07:45:20.592Z,1023.66
2019-03-25T07:46:20.567Z,1023.6
2019-03-25T07:47:20.642Z,1023.63
2019-03-25T07:48:20.841Z,1023.64
2019-03-25T07:49:20.703Z,1023.71
2019-03-25T07:50:20.592Z,1023.7
2019-03-25T07:51:20.621Z,1023.73
2019-03-25T07:52:20.769Z,1023.68
2019-03-25T07:53:20.708Z,1023.63
2019-03-25T07:54:20.710Z,1023.62
2019-03-25T07:55:20.727Z,1023.59
2019-03-25T07:56:20.707Z,1023.66
2019-03-25T07:57:20.830Z,1023.65
2019-03-25T07:58:20.809Z,1023.65
2019-03-25T07:59:20.749Z,1023.67
2019-03-25T08:00:20.807Z,1023.7
2019-03-25T08:01:20.787Z,1023.72
2019-03-25T08:02:20.816Z,1023.74
2019-03-25T08:03:20.848Z,1023.7
2019-03-25T08:04:20.640Z,1023.7
2019-03-25T08:05:20.720Z,1023.71
2019-03-25T08:06:20.525Z,1023.74
2019-03-25T08:07:20.662Z,1023.74
2019-03-25T08:08:20.574Z,1023.76
2019-03-25T08:09:21.734Z,1023.7
2019-03-25T08:10:20.729Z,1023.71
2019-03-25T08:11:20.608Z,1023.77
2019-03-25T08:12:20.647Z,1023.73
2019-03-25T08:13:21.145Z,1023.76
2019-03-25T08:14:20.660Z,1023.72
2019-03-25T08:15:20.657Z,1023.72
2019-03-25T08:16:20.923Z,1023.71
2019-03-25T08:17:20.683Z,1023.71
2019-03-25T08:18:20.660Z,1023.75
2019-03-25T08:19:20.707Z,1023.7
2019-03-25T08:20:20.714Z,1023.76
2019-03-25T08:21:20.875Z,1023.68
2019-03-25T08:22:20.873Z,1023.71
2019-03-25T08:23:20.672Z,1023.74
2019-03-25T08:24:20.529Z,1023.81
2019-03-25T08:25:20.604Z,1023.79
2019-03-25T08:26:20.578Z,1023.77
2019-03-25T08:27:20.686Z,1023.81
2019-03-25T08:28:20.628Z,1023.81
2019-03-25T08:29:20.579Z,1023.78
2019-03-25T08:30:20.654Z,1023.78
2019-03-25T08:31:20.717Z,1023.79
2019-03-25T08:32:20.773Z,1023.82
2019-03-25T08:33:20.709Z,1023.83
2019-03-25T08:34:20.821Z,1023.79
2019-03-25T08:35:20.656Z,1023.7
2019-03-25T08:36:20.741Z,1023.78
2019-03-25T08:37:20.826Z,1023.78
2019-03-25T08:38:20.695Z,1023.77
2019-03-25T08:39:20.795Z,1023.75
2019-03-25T08:40:20.812Z,1023.74
2019-03-25T08:41:20.753Z,1023.8
2019-03-25T08:42:20.484Z,1023.81
2019-03-25T08:43:20.536Z,1023.81
2019-03-25T08:44:20.637Z,1023.83
2019-03-25T08:45:20.503Z,1023.81
2019-03-25T08:46:20.581Z,1023.88
2019-03-25T08:47:20.548Z,1023.91
2019-03-25T08:48:20.563Z,1023.92
2019-03-25T08:49:20.761Z,1023.93
2019-03-25T08:50:20.581Z,1023.91
2019-03-25T08:51:20.592Z,1023.93
2019-03-25T08:52:20.677Z,1023.92
2019-03-25T08:53:20.735Z,1023.88
2019-03-25T08:54:20.794Z,1023.98
2019-03-25T08:55:20.776Z,1023.99
2019-03-25T08:56:20.679Z,1023.98
2019-03-25T08:57:20.777Z,1023.99
2019-03-25T08:58:20.743Z,1024.01
2019-03-25T08:59:20.727Z,1023.97
2019-03-25T09:00:20.751Z,1023.95
2019-03-25T09:01:20.555Z,1023.94
2019-03-25T09:02:20.631Z,1023.94
2019-03-25T09:03:20.544Z,1024.04
2019-03-25T09:04:20.587Z,1023.97
2019-03-25T09:05:20.654Z,1023.93
2019-03-25T09:06:20.589Z,1023.96
2019-03-25T09:07:20.627Z,1024.02
2019-03-25T09:08:20.703Z,1023.99
2019-03-25T09:09:20.670Z,1024.04
2019-03-25T09:10:20.636Z,1023.96
2019-03-25T09:11:20.650Z,1024.04
2019-03-25T09:12:20.637Z,1024.03
2019-03-25T09:13:20.661Z,1024.01
2019-03-25T09:14:21.224Z,1024.01
2019-03-25T09:15:20.679Z,1024.09
2019-03-25T09:16:20.766Z,1024.04
2019-03-25T09:17:20.745Z,1024.11
2019-03-25T09:18:20.766Z,1024.06
2019-03-25T09:19:20.889Z,1024.05
2019-03-25T09:20:20.491Z,1024.06
2019-03-25T09:21:20.502Z,1024.05
2019-03-25T09:22:20.546Z,1024.13
2019-03-25T09:23:20.530Z,1024.1
2019-03-25T09:24:20.620Z,1024.15
2019-03-25T09:25:20.663Z,1024.13
2019-03-25T09:26:20.569Z,1024.07
2019-03-25T09:27:20.610Z,1024.05
2019-03-25T09:28:24.985Z,1024.08
2019-03-25T09:29:20.586Z,1024.05
2019-03-25T09:30:20.706Z,1024.04
2019-03-25T09:31:20.731Z,1023.96
2019-03-25T09:32:20.643Z,1023.99
2019-03-25T09:33:20.667Z,1023.94
2019-03-25T09:34:20.678Z,1024.02
2019-03-25T09:35:20.832Z,1023.95
2019-03-25T09:36:20.894Z,1023.95
2019-03-25T09:37:20.718Z,1023.96
2019-03-25T09:38:20.810Z,1023.96
2019-03-25T09:39:20.505Z,1023.95
2019-03-25T09:40:20.553Z,1023.96
2019-03-25T09:41:20.593Z,1023.98
2019-03-25T09:42:20.602Z,1023.97
2019-03-25T09:43:20.604Z,1023.95
2019-03-25T09:44:20.655Z,1023.92
2019-03-25T09:45:20.679Z,1023.87
2019-03-25T09:46:20.632Z,1023.94
2019-03-25T09:47:20.611Z,1023.91
2019-03-25T09:48:20.752Z,1023.94
2019-03-25T09:49:20.751Z,1023.95
2019-03-25T09:50:20.785Z,1023.88
2019-03-25T09:51:20.840Z,1023.93
2019-03-25T09:52:20.817Z,1023.88
2019-03-25T09:53:20.719Z,1023.89
2019-03-25T09:54:21.023Z,1023.81
2019-03-25T09:55:20.763Z,1023.9
2019-03-25T09:56:20.888Z,1023.89
2019-03-25T09:57:20.650Z,1023.89
2019-03-25T09:58:20.514Z,1023.91
2019-03-25T09:59:20.646Z,1023.83
2019-03-25T10:00:20.530Z,1023.87
2019-03-25T10:01:20.530Z,1023.93
2019-03-25T10:02:20.556Z,1023.95
2019-03-25T10:03:20.558Z,1023.94
2019-03-25T10:04:20.589Z,1023.89
2019-03-25T10:05:20.572Z,1023.93
2019-03-25T10:06:20.653Z,1023.86
2019-03-25T10:07:20.659Z,1023.87
2019-03-25T10:08:20.619Z,1023.94
2019-03-25T10:09:20.621Z,1023.89
2019-03-25T10:10:20.678Z,1023.92
2019-03-25T10:11:20.687Z,1023.95
2019-03-25T10:12:20.818Z,1023.89
2019-03-25T10:13:20.709Z,1024.02
2019-03-25T10:14:20.685Z,1024
2019-03-25T10:15:20.472Z,1023.9
2019-03-25T10:16:20.555Z,1023.85
2019-03-25T10:17:20.661Z,1023.95
2019-03-25T10:18:20.530Z,1023.94
2019-03-25T10:19:20.714Z,1023.87
2019-03-25T10:20:20.976Z,1024
2019-03-25T10:21:20.577Z,1023.99
2019-03-25T10:22:20.740Z,1023.97
2019-03-25T10:23:20.717Z,1023.97
2019-03-25T10:24:28.262Z,1023.97
2019-03-25T10:25:20.757Z,1023.98
2019-03-25T10:26:20.652Z,1023.95
2019-03-25T10:27:20.670Z,1023.99
2019-03-25T10:28:20.825Z,1023.94
2019-03-25T10:29:20.744Z,1023.89
2019-03-25T10:30:20.716Z,1023.91
2019-03-25T10:31:20.818Z,1023.86
2019-03-25T10:32:20.578Z,1023.82
2019-03-25T10:33:20.471Z,1023.79
2019-03-25T10:34:20.659Z,1023.81
2019-03-25T10:35:20.594Z,1023.76
2019-03-25T10:36:20.550Z,1023.81
2019-03-25T10:37:20.528Z,1023.74
2019-03-25T10:38:20.526Z,1023.72
2019-03-25T10:39:20.529Z,1023.71
2019-03-25T10:40:20.582Z,1023.72
2019-03-25T10:41:20.607Z,1023.67
2019-03-25T10:42:20.671Z,1023.67
2019-03-25T10:43:20.637Z,1023.63
2019-03-25T10:44:20.612Z,1023.56
2019-03-25T10:45:20.978Z,1023.58
2019-03-25T10:46:21.107Z,1023.67
2019-03-25T10:47:20.685Z,1023.71
2019-03-25T10:48:20.704Z,1023.85
2019-03-25T10:49:20.738Z,1023.76
2019-03-25T10:50:20.605Z,1023.74
2019-03-25T10:51:20.541Z,1023.76
2019-03-25T10:52:20.569Z,1023.74
2019-03-25T10:53:20.541Z,1023.66
2019-03-25T10:54:20.636Z,1023.7
2019-03-25T10:55:20.630Z,1023.61
2019-03-25T10:56:20.627Z,1023.66
2019-03-25T10:57:20.600Z,1023.63
2019-03-25T10:58:20.587Z,1023.66
2019-03-25T10:59:20.623Z,1023.54
2019-03-25T11:00:20.650Z,1023.51
2019-03-25T11:01:20.713Z,1023.51
2019-03-25T11:02:20.762Z,1023.51
2019-03-25T11:03:20.690Z,1023.48
2019-03-25T11:04:20.846Z,1023.47
2019-03-25T11:05:20.786Z,1023.47
2019-03-25T11:06:20.761Z,1023.52
2019-03-25T11:07:20.810Z,1023.48
2019-03-25T11:08:20.531Z,1023.35
2019-03-25T11:09:20.473Z,1023.42
2019-03-25T11:10:20.553Z,1023.4
2019-03-25T11:11:20.500Z,1023.4
2019-03-25T11:12:20.546Z,1023.42
2019-03-25T11:13:20.690Z,1023.42
2019-03-25T11:14:20.503Z,1023.41
2019-03-25T11:15:20.556Z,1023.38
2019-03-25T11:16:20.562Z,1023.52
2019-03-25T11:17:20.593Z,1023.43
2019-03-25T11:18:20.600Z,1023.45
2019-03-25T11:19:20.837Z,1023.45
2019-03-25T11:20:20.646Z,1023.4
2019-03-25T11:21:20.761Z,1023.4
2019-03-25T11:22:20.776Z,1023.42
2019-03-25T11:23:20.656Z,1023.45
2019-03-25T11:24:20.700Z,1023.33
2019-03-25T11:25:20.680Z,1023.38
2019-03-25T11:26:20.468Z,1023.29
2019-03-25T11:27:20.487Z,1023.31
2019-03-25T11:28:21.574Z,1023.29
2019-03-25T11:29:20.645Z,1023.33
2019-03-25T11:30:20.615Z,1023.33
2019-03-25T11:31:20.627Z,1023.32
2019-03-25T11:32:20.570Z,1023.36
2019-03-25T11:33:20.618Z,1023.37
2019-03-25T11:34:20.656Z,1023.33
2019-03-25T11:35:20.635Z,1023.32
2019-03-25T11:36:20.607Z,1023.33
2019-03-25T11:37:20.733Z,1023.34
2019-03-25T11:38:20.984Z,1023.31
2019-03-25T11:39:20.752Z,1023.39
2019-03-25T11:40:20.664Z,1023.4
2019-03-25T11:41:20.686Z,1023.43
2019-03-25T11:42:20.683Z,1023.56
2019-03-25T11:43:20.594Z,1023.52
2019-03-25T11:44:20.439Z,1023.48
2019-03-25T11:45:20.467Z,1023.43
2019-03-25T11:46:20.474Z,1023.58
2019-03-25T11:47:20.625Z,1023.54
2019-03-25T11:48:20.490Z,1023.56
2019-03-25T11:49:20.629Z,1023.56
2019-03-25T11:50:20.611Z,1023.58
2019-03-25T11:51:20.557Z,1023.57
2019-03-25T11:52:20.544Z,1023.61
2019-03-25T11:53:20.565Z,1023.61
2019-03-25T11:54:20.569Z,1023.59
2019-03-25T11:55:20.584Z,1023.57
2019-03-25T11:56:20.603Z,1023.55
2019-03-25T11:57:20.631Z,1023.54
2019-03-25T11:58:20.653Z,1023.58
2019-03-25T11:59:20.672Z,1023.63
2019-03-25T12:00:20.676Z,1023.64
2019-03-25T12:01:20.590Z,1023.65
2019-03-25T12:02:20.487Z,1023.65
2019-03-25T12:03:20.480Z,1023.63
2019-03-25T12:04:20.651Z,1023.55
2019-03-25T12:05:20.531Z,1023.55
2019-03-25T12:06:20.642Z,1023.5
2019-03-25T12:07:20.601Z,1023.49